Time;durP1;ratioP1;P1;durP2;ratioP2;P2;SDS_P1;SDS_P2;PMS_P1;PMS_P2;Temp;Humidity;BMP_temperature;BMP_pressure;BME280_temperature;BME280_humidity;BME280_pressure;Samples;Min_cycle;Max_cycle;Signal;HPM_P1;HPM_P2
2022/03/23 00:00:09;;;;;;;14.80;13.10;;;11.10;52.10;;;;;;5081157;28;20467;-64
2022/03/23 00:02:36;;;;;;;15.30;13.37;;;11.10;52.40;;;;;;5080012;28;20460;-64
2022/03/23 00:05:04;;;;;;;14.83;13.20;;;11.10;52.40;;;;;;5080133;28;20448;-64
2022/03/23 00:07:31;;;;;;;18.30;13.10;;;11.00;52.50;;;;;;5079760;28;20445;-64
2022/03/23 00:09:58;;;;;;;13.70;12.30;;;11.00;52.70;;;;;;5079462;28;20511;-64
2022/03/23 00:12:25;;;;;;;14.73;13.23;;;11.00;52.80;;;;;;5079544;28;20477;-64
2022/03/23 00:14:51;;;;;;;19.27;13.53;;;11.00;52.90;;;;;;5079741;28;20448;-64
2022/03/23 00:17:18;;;;;;;15.00;13.40;;;10.90;52.90;;;;;;5079374;28;20476;-63
2022/03/23 00:19:45;;;;;;;13.70;12.20;;;10.90;52.90;;;;;;5078630;28;20930;-63
2022/03/23 00:22:13;;;;;;;12.93;11.60;;;10.80;52.80;;;;;;5079487;28;20469;-63
2022/03/23 00:24:40;;;;;;;19.70;13.27;;;10.70;52.80;;;;;;5080826;28;20449;-63
2022/03/23 00:27:06;;;;;;;14.30;12.03;;;10.70;52.90;;;;;;5078826;28;20456;-62
2022/03/23 00:29:34;;;;;;;19.20;13.40;;;10.60;53.10;;;;;;5079164;28;20440;-64
2022/03/23 00:32:00;;;;;;;13.87;12.00;;;10.60;53.10;;;;;;5078785;28;20479;-64
2022/03/23 00:34:27;;;;;;;13.90;12.50;;;10.60;53.40;;;;;;5079018;28;20479;-64
2022/03/23 00:36:54;;;;;;;16.67;13.00;;;10.50;53.70;;;;;;5079621;28;20484;-64
2022/03/23 00:39:22;;;;;;;14.33;12.83;;;10.50;53.90;;;;;;5079238;28;20437;-64
2022/03/23 00:41:50;;;;;;;18.17;14.23;;;10.50;53.90;;;;;;5078993;28;20468;-64
2022/03/23 00:44:17;;;;;;;14.83;13.17;;;10.50;53.80;;;;;;5078429;28;20456;-64
2022/03/23 00:46:44;;;;;;;16.77;13.57;;;10.40;53.80;;;;;;5078091;28;20449;-64
2022/03/23 00:49:10;;;;;;;15.50;11.87;;;10.30;53.50;;;;;;5078753;28;20448;-63
2022/03/23 00:51:37;;;;;;;15.40;13.80;;;10.30;53.70;;;;;;5079012;28;20476;-63
2022/03/23 00:54:04;;;;;;;14.60;13.00;;;10.20;54.00;;;;;;5079890;28;20440;-64
2022/03/23 00:56:32;;;;;;;15.33;13.60;;;10.10;54.00;;;;;;5078648;28;20480;-64
2022/03/23 00:58:59;;;;;;;16.30;12.60;;;10.10;54.20;;;;;;5078620;28;20465;-63
2022/03/23 01:01:29;;;;;;;16.33;14.17;;;10.10;54.10;;;;;;5078704;28;20496;-63
2022/03/23 01:03:56;;;;;;;18.77;14.53;;;10.00;54.30;;;;;;5079592;28;20452;-64
2022/03/23 01:06:22;;;;;;;16.63;13.93;;;10.00;54.30;;;;;;5078530;28;20452;-64
2022/03/23 01:08:49;;;;;;;16.57;14.03;;;9.90;55.10;;;;;;5079031;28;20502;-64
2022/03/23 01:11:16;;;;;;;17.03;13.97;;;9.90;55.30;;;;;;5078962;28;20468;-64
2022/03/23 01:13:44;;;;;;;16.00;13.40;;;9.90;55.30;;;;;;5077697;28;20816;-64
2022/03/23 01:16:12;;;;;;;19.00;14.93;;;9.80;55.20;;;;;;5077879;28;20468;-64
2022/03/23 01:18:38;;;;;;;19.20;14.97;;;9.90;55.60;;;;;;5079179;28;20495;-64
2022/03/23 01:21:05;;;;;;;22.03;14.70;;;9.80;55.50;;;;;;5077708;28;20463;-64
2022/03/23 01:23:32;;;;;;;16.17;14.43;;;9.70;55.50;;;;;;5078660;28;20455;-63
2022/03/23 01:25:59;;;;;;;21.33;15.63;;;9.70;55.50;;;;;;5078211;28;20466;-64
2022/03/23 01:28:26;;;;;;;15.77;14.07;;;9.60;55.50;;;;;;5078105;28;20444;-64
2022/03/23 01:30:54;;;;;;;22.37;15.50;;;9.60;55.70;;;;;;5078363;28;20476;-64
2022/03/23 01:33:21;;;;;;;18.33;15.10;;;9.50;55.80;;;;;;5078618;28;20440;-63
2022/03/23 01:35:48;;;;;;;24.00;16.60;;;9.50;55.90;;;;;;5078506;28;20444;-63
2022/03/23 01:38:15;;;;;;;23.50;15.90;;;9.50;55.90;;;;;;5078521;28;20488;-63
2022/03/23 01:40:42;;;;;;;16.23;14.57;;;9.50;55.90;;;;;;5078600;28;20995;-64
2022/03/23 01:43:08;;;;;;;18.17;14.93;;;9.50;56.00;;;;;;5078342;28;20935;-64
2022/03/23 01:45:35;;;;;;;20.47;14.77;;;9.50;56.30;;;;;;5078439;28;20440;-64
2022/03/23 01:48:04;;;;;;;18.93;15.10;;;9.50;56.30;;;;;;5078745;28;20463;-63
2022/03/23 01:50:30;;;;;;;16.87;13.33;;;9.50;56.50;;;;;;5078443;28;20449;-63
2022/03/23 01:52:57;;;;;;;18.27;14.40;;;9.50;56.60;;;;;;5078560;28;20455;-63
2022/03/23 01:55:24;;;;;;;21.00;15.60;;;9.50;56.80;;;;;;5081738;28;20500;-63
2022/03/23 01:57:52;;;;;;;16.40;14.30;;;9.50;56.60;;;;;;5086277;28;21007;-64
2022/03/23 02:00:20;;;;;;;17.17;14.73;;;9.50;56.50;;;;;;5077141;28;20449;-64
2022/03/23 02:02:47;;;;;;;17.10;14.40;;;9.40;56.60;;;;;;5076540;28;20452;-64
2022/03/23 02:05:16;;;;;;;20.87;16.10;;;9.40;56.70;;;;;;5076924;28;20455;-63
2022/03/23 02:07:42;;;;;;;18.10;13.83;;;9.40;56.80;;;;;;5083289;28;20445;-64
2022/03/23 02:10:10;;;;;;;20.27;15.93;;;9.40;56.80;;;;;;5086352;28;20452;-64
2022/03/23 02:12:37;;;;;;;20.47;15.50;;;9.40;56.70;;;;;;5084675;28;20468;-64
2022/03/23 02:15:11;;;;;;;19.17;15.70;;;9.40;56.90;;;;;;5075894;28;20781;-64
2022/03/23 02:17:38;;;;;;;16.87;14.53;;;9.40;57.10;;;;;;5076039;28;20478;-64
2022/03/23 02:20:07;;;;;;;19.80;15.60;;;9.30;57.30;;;;;;5075831;28;20463;-64
2022/03/23 02:22:35;;;;;;;18.13;14.87;;;9.30;57.30;;;;;;5075644;28;20987;-64
2022/03/23 02:25:02;;;;;;;20.07;16.17;;;9.30;57.50;;;;;;5075972;28;20902;-64
2022/03/23 02:27:30;;;;;;;19.07;15.10;;;9.30;57.80;;;;;;5075864;28;20498;-64
2022/03/23 02:29:58;;;;;;;19.20;15.60;;;9.30;57.90;;;;;;5078467;28;20506;-62
2022/03/23 02:32:25;;;;;;;19.60;15.77;;;9.30;58.00;;;;;;5081094;28;20480;-62
2022/03/23 02:34:52;;;;;;;20.00;16.63;;;9.30;58.00;;;;;;5077341;28;20480;-63
2022/03/23 02:37:18;;;;;;;17.37;15.20;;;9.30;58.60;;;;;;5077513;28;20492;-63
2022/03/23 02:39:47;;;;;;;20.30;16.30;;;9.30;58.20;;;;;;5077480;28;20445;-63
2022/03/23 02:42:14;;;;;;;18.10;15.57;;;9.30;58.10;;;;;;5076237;28;20465;-63
2022/03/23 02:44:40;;;;;;;22.80;16.23;;;9.30;58.00;;;;;;5076171;28;20502;-63
2022/03/23 02:47:08;;;;;;;19.40;16.60;;;9.20;57.90;;;;;;5076554;28;20510;-63
2022/03/23 02:49:35;;;;;;;19.00;16.63;;;9.20;58.00;;;;;;5075636;28;20448;-64
2022/03/23 02:52:02;;;;;;;17.30;15.30;;;9.20;58.10;;;;;;5076546;28;20473;-64
2022/03/23 03:03:17;;;;;;;17.70;14.60;;;9.00;58.10;;;;;;5076231;28;20412;-63
2022/03/23 03:05:44;;;;;;;24.90;17.10;;;8.90;57.50;;;;;;5077051;28;20472;-62
2022/03/23 03:10:54;;;;;;;22.40;17.37;;;8.60;57.90;;;;;;5080626;28;20523;-63
2022/03/23 03:13:22;;;;;;;20.17;14.87;;;8.60;58.40;;;;;;5080602;28;20447;-63
2022/03/23 03:15:49;;;;;;;22.30;16.67;;;8.50;58.30;;;;;;5080267;28;20946;-63
2022/03/23 03:18:16;;;;;;;18.33;15.40;;;8.50;58.40;;;;;;5080313;28;20554;-63
2022/03/23 03:20:43;;;;;;;20.50;15.30;;;8.50;58.40;;;;;;5080536;28;20471;-63
2022/03/23 03:23:12;;;;;;;17.33;14.97;;;8.40;58.40;;;;;;5080369;28;20459;-63
2022/03/23 03:25:38;;;;;;;19.60;14.60;;;8.40;58.70;;;;;;5080931;28;20448;-63
2022/03/23 03:28:05;;;;;;;18.30;15.17;;;8.40;58.80;;;;;;5079804;28;20441;-63
2022/03/23 03:30:34;;;;;;;18.17;14.13;;;8.40;58.70;;;;;;5080411;28;20455;-64
2022/03/23 03:33:01;;;;;;;30.87;15.60;;;8.40;58.80;;;;;;5080411;28;20454;-64
2022/03/23 03:35:28;;;;;;;18.90;14.90;;;8.40;59.00;;;;;;5080434;28;20456;-64
2022/03/23 03:37:55;;;;;;;18.23;15.20;;;8.30;59.10;;;;;;5079857;28;20472;-64
2022/03/23 03:40:21;;;;;;;19.03;15.70;;;8.40;59.50;;;;;;5079677;28;20467;-64
2022/03/23 03:42:48;;;;;;;18.17;14.47;;;8.40;59.40;;;;;;5079588;28;20460;-64
2022/03/23 03:45:15;;;;;;;21.37;15.77;;;8.40;59.50;;;;;;5079329;28;20455;-64
2022/03/23 03:47:44;;;;;;;19.50;15.87;;;8.40;59.60;;;;;;5078964;28;20444;-64
2022/03/23 03:50:11;;;;;;;16.80;14.57;;;8.30;59.60;;;;;;5079446;28;20491;-64
2022/03/23 03:52:38;;;;;;;17.00;14.70;;;8.30;59.80;;;;;;5079015;28;20990;-63
2022/03/23 03:55:05;;;;;;;17.70;15.80;;;8.30;59.90;;;;;;5079559;28;20456;-63
2022/03/23 03:57:32;;;;;;;20.73;13.70;;;8.30;59.90;;;;;;5078892;28;21002;-64
2022/03/23 03:59:58;;;;;;;21.73;17.10;;;8.30;60.00;;;;;;5079299;28;20453;-63
2022/03/23 04:02:25;;;;;;;16.03;14.23;;;8.30;60.20;;;;;;5078494;28;20512;-63
2022/03/23 04:04:53;;;;;;;21.63;15.30;;;8.30;60.00;;;;;;5079113;28;20954;-63
2022/03/23 04:07:20;;;;;;;17.37;15.57;;;8.30;60.00;;;;;;5079188;28;20440;-64
2022/03/23 04:09:46;;;;;;;20.27;16.50;;;8.30;59.90;;;;;;5079824;28;20448;-64
2022/03/23 04:12:13;;;;;;;21.10;17.17;;;8.30;60.00;;;;;;5078822;28;20469;-64
2022/03/23 04:14:40;;;;;;;20.90;16.40;;;8.30;59.90;;;;;;5079277;28;20457;-63
2022/03/23 04:17:07;;;;;;;19.93;16.27;;;8.20;59.80;;;;;;5079220;28;20491;-63
2022/03/23 04:19:33;;;;;;;18.53;15.17;;;8.20;59.80;;;;;;5079255;28;20460;-63
2022/03/23 04:22:01;;;;;;;17.50;15.47;;;8.10;59.60;;;;;;5079235;28;20464;-63
2022/03/23 04:24:28;;;;;;;16.87;14.80;;;8.10;59.70;;;;;;5080055;28;20487;-64
2022/03/23 04:26:55;;;;;;;21.93;15.53;;;8.10;59.90;;;;;;5086238;28;20448;-63
2022/03/23 04:29:24;;;;;;;16.73;13.80;;;8.00;60.20;;;;;;5091711;28;20448;-63
2022/03/23 04:31:51;;;;;;;20.73;14.17;;;8.00;60.10;;;;;;5085771;28;20472;-63
2022/03/23 04:34:18;;;;;;;18.37;13.97;;;8.00;60.20;;;;;;5089727;28;20502;-63
2022/03/23 04:36:44;;;;;;;21.53;16.37;;;8.00;60.40;;;;;;5083938;28;20452;-63
2022/03/23 04:39:12;;;;;;;20.20;16.13;;;7.90;60.70;;;;;;5077919;28;20460;-63
2022/03/23 04:41:39;;;;;;;25.23;17.20;;;7.90;60.90;;;;;;5078434;28;20477;-63
2022/03/23 04:44:06;;;;;;;20.83;15.97;;;7.90;61.20;;;;;;5078796;28;20825;-63
2022/03/23 04:46:33;;;;;;;22.03;17.07;;;7.90;61.70;;;;;;5078699;28;20455;-64
2022/03/23 04:48:59;;;;;;;25.20;19.47;;;7.90;61.70;;;;;;5078291;28;20452;-63
2022/03/23 04:51:26;;;;;;;19.70;17.60;;;7.90;61.70;;;;;;5078109;28;20460;-63
2022/03/23 04:53:53;;;;;;;24.00;16.60;;;7.90;61.80;;;;;;5078585;28;20821;-63
2022/03/23 04:56:21;;;;;;;20.77;17.40;;;7.90;62.00;;;;;;5078583;28;20445;-63
2022/03/23 04:58:47;;;;;;;24.83;17.40;;;7.90;62.40;;;;;;5078095;28;20480;-64
2022/03/23 05:01:14;;;;;;;24.80;18.60;;;7.90;62.20;;;;;;5078141;28;20464;-64
2022/03/23 05:03:41;;;;;;;19.93;16.30;;;7.90;62.30;;;;;;5078252;28;20441;-64
2022/03/23 05:06:08;;;;;;;23.47;17.80;;;7.90;62.30;;;;;;5078102;28;20469;-63
2022/03/23 05:08:35;;;;;;;26.43;17.17;;;7.90;62.30;;;;;;5078313;28;20452;-63
2022/03/23 05:11:02;;;;;;;23.83;18.40;;;7.80;62.30;;;;;;5078267;28;20975;-64
2022/03/23 05:13:30;;;;;;;22.50;18.30;;;7.80;62.40;;;;;;5077743;28;20465;-64
2022/03/23 05:15:56;;;;;;;21.53;17.20;;;7.80;62.50;;;;;;5077848;28;20456;-64
2022/03/23 05:18:23;;;;;;;21.03;16.93;;;7.80;62.60;;;;;;5078372;28;20488;-64
2022/03/23 05:20:50;;;;;;;24.80;17.50;;;7.80;62.70;;;;;;5078112;28;20461;-64
2022/03/23 05:23:17;;;;;;;22.67;16.97;;;7.80;62.90;;;;;;5078984;28;20445;-64
2022/03/23 05:25:43;;;;;;;26.50;19.10;;;7.80;63.00;;;;;;5078598;28;20840;-64
2022/03/23 05:28:10;;;;;;;26.83;19.37;;;7.80;62.70;;;;;;5078077;28;20436;-64
2022/03/23 05:30:39;;;;;;;22.23;16.90;;;7.70;62.70;;;;;;5080029;28;20465;-64
2022/03/23 05:33:05;;;;;;;23.97;17.17;;;7.70;62.80;;;;;;5080011;28;20467;-64
2022/03/23 05:35:33;;;;;;;23.40;18.73;;;7.70;63.00;;;;;;5080255;28;20448;-64
2022/03/23 05:37:59;;;;;;;24.23;18.23;;;7.70;62.90;;;;;;5079625;28;20488;-65
2022/03/23 05:40:26;;;;;;;21.97;17.00;;;7.70;63.00;;;;;;5079511;28;20445;-65
2022/03/23 05:42:53;;;;;;;22.63;17.03;;;7.70;63.20;;;;;;5080070;28;20958;-65
2022/03/23 05:45:20;;;;;;;23.40;17.80;;;7.70;63.40;;;;;;5079054;28;20451;-64
2022/03/23 05:47:49;;;;;;;29.73;17.77;;;7.70;63.60;;;;;;5078711;28;20476;-62
2022/03/23 05:50:16;;;;;;;29.23;18.27;;;7.70;63.80;;;;;;5078792;28;20459;-62
2022/03/23 05:52:43;;;;;;;25.50;17.93;;;7.60;63.40;;;;;;5078279;28;20472;-63
2022/03/23 05:55:10;;;;;;;22.00;18.33;;;7.60;63.90;;;;;;5078510;28;20452;-62
2022/03/23 05:57:37;;;;;;;26.70;19.03;;;7.60;64.30;;;;;;5077950;28;20469;-63
2022/03/23 06:00:05;;;;;;;22.77;16.77;;;7.60;64.40;;;;;;5077883;28;20463;-63
2022/03/23 06:02:32;;;;;;;25.27;17.97;;;7.70;64.50;;;;;;5078709;28;20457;-63
2022/03/23 06:05:02;;;;;;;23.17;18.37;;;7.70;64.60;;;;;;5077943;28;20452;-63
2022/03/23 06:07:28;;;;;;;31.50;19.40;;;7.70;64.70;;;;;;5078956;28;20486;-62
2022/03/23 06:09:55;;;;;;;27.20;18.70;;;7.70;64.70;;;;;;5077815;28;20851;-62
2022/03/23 06:12:22;;;;;;;23.23;19.27;;;7.70;64.80;;;;;;5077668;28;20489;-62
2022/03/23 06:14:49;;;;;;;23.67;17.93;;;7.70;64.90;;;;;;5076239;28;20453;-63
2022/03/23 06:17:15;;;;;;;26.70;18.57;;;7.80;65.10;;;;;;5076793;28;20460;-63
2022/03/23 06:19:42;;;;;;;24.10;18.80;;;7.80;65.30;;;;;;5076128;28;20481;-63
2022/03/23 06:22:10;;;;;;;29.80;19.33;;;7.80;65.30;;;;;;5076583;28;20844;-64
2022/03/23 06:24:37;;;;;;;28.23;17.93;;;7.80;65.50;;;;;;5077317;28;20491;-64
2022/03/23 06:27:04;;;;;;;23.00;18.00;;;7.80;65.40;;;;;;5078734;28;20453;-62
2022/03/23 06:29:31;;;;;;;24.67;18.17;;;7.80;65.50;;;;;;5079472;28;20796;-62
2022/03/23 06:31:58;;;;;;;21.37;18.10;;;7.90;65.80;;;;;;5079298;28;20468;-63
2022/03/23 06:34:25;;;;;;;22.20;17.03;;;7.90;65.80;;;;;;5075980;28;20448;-63
2022/03/23 06:36:51;;;;;;;25.80;18.70;;;7.90;66.00;;;;;;5076433;28;20459;-63
2022/03/23 06:39:19;;;;;;;24.33;19.07;;;7.90;66.10;;;;;;5076230;28;20857;-63
2022/03/23 06:41:46;;;;;;;26.30;19.57;;;8.00;66.30;;;;;;5076577;28;20472;-63
2022/03/23 06:44:13;;;;;;;28.03;19.37;;;8.00;66.40;;;;;;5075647;28;20516;-63
2022/03/23 06:46:40;;;;;;;25.67;18.90;;;8.10;66.50;;;;;;5076711;28;20536;-63
2022/03/23 06:49:07;;;;;;;28.80;19.50;;;8.10;66.80;;;;;;5076574;28;20439;-63
2022/03/23 06:51:34;;;;;;;33.60;19.60;;;8.10;67.00;;;;;;5076432;28;20475;-64
2022/03/23 06:54:01;;;;;;;26.20;19.40;;;8.10;67.20;;;;;;5076693;28;20467;-63
2022/03/23 06:56:29;;;;;;;25.90;19.57;;;8.20;67.80;;;;;;5075892;28;20449;-63
2022/03/23 06:58:57;;;;;;;29.77;21.17;;;8.20;67.90;;;;;;5075321;28;20494;-63
2022/03/23 07:01:23;;;;;;;30.97;20.37;;;8.30;68.00;;;;;;5075717;28;20525;-63
2022/03/23 07:03:50;;;;;;;33.10;21.83;;;8.40;67.60;;;;;;5076854;28;20437;-62
2022/03/23 07:06:17;;;;;;;32.17;22.90;;;8.40;67.00;;;;;;5076471;28;20795;-62
2022/03/23 07:11:30;;;;;;;27.23;21.07;;;8.60;65.80;;;;;;5076305;28;20440;-64
2022/03/23 07:13:57;;;;;;;28.70;20.93;;;8.70;65.70;;;;;;5076276;28;20440;-64
2022/03/23 07:16:24;;;;;;;30.73;23.20;;;8.70;65.70;;;;;;5077278;28;20452;-64
2022/03/23 07:18:51;;;;;;;38.37;23.40;;;8.90;65.80;;;;;;5075973;28;21011;-62
2022/03/23 07:21:18;;;;;;;34.80;22.33;;;9.00;65.90;;;;;;5075649;28;20460;-63
2022/03/23 07:23:44;;;;;;;27.23;20.63;;;9.10;65.40;;;;;;5075996;28;20826;-62
2022/03/23 07:26:11;;;;;;;29.67;22.90;;;9.20;65.50;;;;;;5076396;28;20449;-63
2022/03/23 07:28:39;;;;;;;27.80;19.80;;;9.30;65.00;;;;;;5076116;28;20421;-62
2022/03/23 07:31:06;;;;;;;27.00;20.37;;;9.40;64.60;;;;;;5075687;28;20464;-63
2022/03/23 07:33:33;;;;;;;29.30;20.60;;;9.50;63.90;;;;;;5075543;28;20797;-62
2022/03/23 07:36:01;;;;;;;27.13;20.20;;;9.60;63.30;;;;;;5076718;28;20456;-63
2022/03/23 07:38:27;;;;;;;25.60;21.57;;;9.70;63.00;;;;;;5075856;28;20847;-63
2022/03/23 07:40:54;;;;;;;30.10;21.87;;;9.90;61.70;;;;;;5076098;28;20542;-63
2022/03/23 07:43:21;;;;;;;31.00;22.70;;;10.00;59.70;;;;;;5076034;28;20456;-63
2022/03/23 07:45:49;;;;;;;28.97;21.73;;;10.20;59.20;;;;;;5076645;28;20506;-63
2022/03/23 07:48:16;;;;;;;25.90;20.47;;;10.30;58.90;;;;;;5076262;28;20447;-63
2022/03/23 07:50:43;;;;;;;25.13;18.47;;;10.40;58.40;;;;;;5076002;28;20500;-63
2022/03/23 07:53:10;;;;;;;34.40;23.17;;;10.60;58.00;;;;;;5076218;28;20448;-64
2022/03/23 07:55:36;;;;;;;25.47;20.50;;;10.70;57.20;;;;;;5076890;28;20460;-63
2022/03/23 07:58:03;;;;;;;26.13;19.70;;;10.90;56.50;;;;;;5079985;28;20451;-63
2022/03/23 08:00:30;;;;;;;29.33;21.70;;;11.00;56.00;;;;;;5080171;28;20816;-62
2022/03/23 08:02:59;;;;;;;24.00;20.27;;;11.20;55.30;;;;;;5080798;28;20452;-62
2022/03/23 08:05:26;;;;;;;30.93;20.53;;;11.30;54.80;;;;;;5084820;28;20443;-62
2022/03/23 08:08:01;;;;;;;22.50;18.97;;;11.50;54.10;;;;;;5081124;28;20457;-63
2022/03/23 08:10:27;;;;;;;22.90;17.83;;;11.60;53.50;;;;;;5076207;28;20425;-63
2022/03/23 08:12:55;;;;;;;26.57;20.50;;;11.80;53.00;;;;;;5075966;28;20480;-63
2022/03/23 08:15:24;;;;;;;20.50;18.30;;;12.00;52.60;;;;;;5075826;28;20456;-62
2022/03/23 08:17:51;;;;;;;21.13;15.83;;;12.20;51.60;;;;;;5075884;28;20428;-62
2022/03/23 08:20:35;;;;;;;24.27;18.27;;;12.40;51.40;;;;;;5075602;28;20476;-62
2022/03/23 08:23:02;;;;;;;22.00;18.97;;;12.60;51.30;;;;;;5075825;28;20441;-63
2022/03/23 08:25:29;;;;;;;27.07;19.87;;;12.70;50.90;;;;;;5075617;28;20648;-63
2022/03/23 08:27:57;;;;;;;29.00;19.50;;;12.90;50.30;;;;;;5075698;28;20456;-62
2022/03/23 08:30:25;;;;;;;20.80;18.40;;;13.10;49.60;;;;;;5075793;28;20451;-62
2022/03/23 08:32:51;;;;;;;20.80;18.53;;;13.30;49.30;;;;;;5075522;28;20449;-62
2022/03/23 08:35:20;;;;;;;23.57;20.27;;;13.40;49.10;;;;;;5075853;28;20494;-62
2022/03/23 08:37:48;;;;;;;24.07;19.90;;;13.60;48.80;;;;;;5075480;28;20440;-62
2022/03/23 08:40:14;;;;;;;23.67;19.07;;;13.70;48.40;;;;;;5075478;28;20523;-61
2022/03/23 08:42:41;;;;;;;28.47;20.97;;;13.80;48.00;;;;;;5075355;28;20472;-62
2022/03/23 08:45:09;;;;;;;30.40;19.50;;;14.00;49.10;;;;;;5075357;28;20444;-62
2022/03/23 08:47:38;;;;;;;25.30;19.97;;;14.10;49.20;;;;;;5075061;28;20815;-62
2022/03/23 08:50:07;;;;;;;26.47;20.80;;;14.20;49.40;;;;;;5075208;28;20544;-62
2022/03/23 08:52:35;;;;;;;25.07;21.57;;;14.30;49.20;;;;;;5074874;28;20468;-61
2022/03/23 08:55:02;;;;;;;23.33;19.77;;;14.40;49.00;;;;;;5075235;28;20441;-62
2022/03/23 08:57:29;;;;;;;30.60;23.07;;;14.50;48.80;;;;;;5074902;28;20886;-62
2022/03/23 08:59:56;;;;;;;23.93;20.93;;;14.60;48.70;;;;;;5075151;28;20476;-61
2022/03/23 09:02:23;;;;;;;21.27;19.17;;;14.70;48.20;;;;;;5074916;28;20476;-61
2022/03/23 09:04:49;;;;;;;26.47;21.90;;;14.80;48.30;;;;;;5075117;28;20441;-61
2022/03/23 09:07:16;;;;;;;24.57;21.97;;;14.90;48.40;;;;;;5074663;28;20452;-62
2022/03/23 09:09:44;;;;;;;27.00;21.40;;;15.00;48.60;;;;;;5075000;28;20448;-62
2022/03/23 09:12:11;;;;;;;23.23;20.53;;;15.10;48.40;;;;;;5074871;28;20476;-63
2022/03/23 09:14:39;;;;;;;24.47;21.67;;;15.20;48.60;;;;;;5074933;28;20528;-63
2022/03/23 09:17:06;;;;;;;27.97;20.40;;;15.30;48.50;;;;;;5075138;28;20469;-61
2022/03/23 09:19:33;;;;;;;27.23;22.83;;;15.40;48.40;;;;;;5074516;28;20485;-62
2022/03/23 09:22:00;;;;;;;26.50;23.70;;;15.60;47.60;;;;;;5074513;28;20836;-61
2022/03/23 09:24:27;;;;;;;28.80;23.30;;;15.70;47.20;;;;;;5074853;28;20471;-63
2022/03/23 09:26:55;;;;;;;23.73;21.30;;;15.80;46.90;;;;;;5074677;28;20478;-62
2022/03/23 09:29:23;;;;;;;26.73;21.83;;;15.90;47.50;;;;;;5074542;28;20444;-62
2022/03/23 09:31:49;;;;;;;26.07;23.20;;;15.90;47.80;;;;;;5074574;28;20464;-62
2022/03/23 09:34:16;;;;;;;28.37;24.17;;;16.10;48.90;;;;;;5074679;28;20800;-62
2022/03/23 09:39:27;;;;;;;26.20;23.40;;;16.50;48.80;;;;;;5074456;28;20464;-62
2022/03/23 09:41:59;;;;;;;23.73;21.23;;;16.70;48.40;;;;;;5074497;28;20469;-62
2022/03/23 09:44:28;;;;;;;27.50;23.80;;;16.90;47.80;;;;;;5074381;28;20432;-62
2022/03/23 09:46:55;;;;;;;26.77;23.47;;;17.20;46.80;;;;;;5074368;28;20453;-61
2022/03/23 09:49:23;;;;;;;25.80;23.00;;;17.50;46.20;;;;;;5074185;28;20445;-61
2022/03/23 09:51:52;;;;;;;27.50;23.23;;;17.90;45.10;;;;;;5074002;28;20473;-62
2022/03/23 09:54:19;;;;;;;27.47;23.57;;;18.20;43.80;;;;;;5073930;28;20453;-62
2022/03/23 09:56:46;;;;;;;26.77;24.00;;;18.40;41.80;;;;;;5074054;28;20502;-62
2022/03/23 09:59:14;;;;;;;28.20;23.80;;;18.80;41.60;;;;;;5073900;28;20488;-62
2022/03/23 10:02:26;;;;;;;28.37;24.90;;;19.00;40.70;;;;;;5073761;28;20986;-63
2022/03/23 10:05:44;;;;;;;26.30;23.60;;;19.30;41.00;;;;;;5074004;28;20813;-62
2022/03/23 10:08:49;;;;;;;22.30;20.07;;;19.70;40.80;;;;;;5073847;28;20432;-62
2022/03/23 10:11:58;;;;;;;25.40;22.67;;;20.20;39.70;;;;;;5073788;28;20539;-62
2022/03/23 10:15:08;;;;;;;27.83;24.97;;;20.80;38.60;;;;;;5025259;28;20452;-62
2022/03/23 10:17:59;;;;;;;26.23;23.03;;;21.20;37.20;;;;;;5073759;28;20455;-62
2022/03/23 10:20:26;;;;;;;25.13;22.53;;;21.50;37.10;;;;;;5072870;28;20812;-62
2022/03/23 10:22:55;;;;;;;27.60;24.67;;;21.90;36.50;;;;;;5073580;28;20966;-63
2022/03/23 10:25:26;;;;;;;29.83;25.27;;;22.30;35.20;;;;;;5073571;28;20445;-62
2022/03/23 10:27:55;;;;;;;30.10;24.10;;;22.60;34.30;;;;;;5073617;28;20450;-62
2022/03/23 10:30:33;;;;;;;28.40;25.17;;;22.90;34.20;;;;;;5073577;28;20441;-63
2022/03/23 10:33:01;;;;;;;27.43;24.63;;;23.30;34.40;;;;;;5073629;28;20473;-62
2022/03/23 10:35:36;;;;;;;28.63;25.67;;;23.70;32.50;;;;;;5073524;28;20449;-63
2022/03/23 10:38:12;;;;;;;29.60;26.53;;;24.30;32.50;;;;;;5073537;28;20432;-63
2022/03/23 10:40:38;;;;;;;28.17;25.27;;;24.70;31.30;;;;;;5073619;28;20526;-63
2022/03/23 10:43:05;;;;;;;28.50;25.33;;;25.00;30.70;;;;;;5073179;28;20543;-63
2022/03/23 10:45:32;;;;;;;28.70;25.87;;;25.50;30.40;;;;;;5073987;28;20448;-63
2022/03/23 10:48:10;;;;;;;29.30;26.27;;;25.90;29.40;;;;;;5073428;28;20479;-62
2022/03/23 10:50:38;;;;;;;26.10;23.70;;;26.40;28.70;;;;;;5074243;28;20479;-63
2022/03/23 10:53:07;;;;;;;27.93;25.23;;;26.90;28.80;;;;;;5073778;28;20436;-63
2022/03/23 10:55:38;;;;;;;29.67;26.63;;;27.50;27.80;;;;;;5073686;28;20952;-63
2022/03/23 10:58:21;;;;;;;30.47;27.57;;;28.00;25.50;;;;;;5073179;28;20476;-63
2022/03/23 11:00:48;;;;;;;29.40;26.10;;;28.30;25.20;;;;;;5072819;28;20924;-63
2022/03/23 11:03:16;;;;;;;30.13;27.00;;;28.50;25.10;;;;;;5073448;28;20555;-63
2022/03/23 11:05:45;;;;;;;28.20;25.57;;;28.50;24.50;;;;;;5073140;28;20457;-62
2022/03/23 11:08:13;;;;;;;27.93;25.37;;;28.40;24.70;;;;;;5073052;28;20826;-64
2022/03/23 11:16:18;;;;;;;30.53;27.60;;;29.30;23.60;;;;;;5073064;28;21010;-63
2022/03/23 11:18:46;;;;;;;29.50;26.73;;;29.50;23.30;;;;;;5072877;28;20555;-63
2022/03/23 11:21:13;;;;;;;31.83;28.13;;;29.50;23.70;;;;;;5072799;28;20514;-63
2022/03/23 11:23:40;;;;;;;32.47;29.27;;;29.80;24.40;;;;;;5072974;28;20460;-63
2022/03/23 11:26:08;;;;;;;31.67;28.80;;;30.20;23.10;;;;;;5072919;28;20452;-63
2022/03/23 11:28:38;;;;;;;31.53;27.67;;;30.30;22.50;;;;;;5072901;28;20444;-63
2022/03/23 11:31:06;;;;;;;27.83;25.07;;;30.40;22.90;;;;;;5075006;28;20467;-63
2022/03/23 11:33:34;;;;;;;30.17;27.47;;;30.80;21.50;;;;;;5076618;28;20474;-63
2022/03/23 11:36:04;;;;;;;29.10;26.23;;;31.20;19.70;;;;;;5076815;28;20456;-63
2022/03/23 11:38:33;;;;;;;30.33;27.73;;;31.40;18.50;;;;;;5077082;28;20452;-63
2022/03/23 11:41:00;;;;;;;27.60;24.97;;;31.50;19.00;;;;;;5076357;28;20578;-63
2022/03/23 11:43:30;;;;;;;29.27;26.70;;;31.60;19.20;;;;;;5076612;28;20451;-63
2022/03/23 11:45:58;;;;;;;28.10;25.57;;;31.90;19.70;;;;;;5076591;28;20478;-63
2022/03/23 11:48:52;;;;;;;25.70;23.40;;;32.40;19.70;;;;;;5076647;28;20494;-64
2022/03/23 11:51:48;;;;;;;30.57;27.97;;;33.10;19.00;;;;;;5076260;28;20890;-64
2022/03/23 11:54:22;;;;;;;33.70;30.77;;;33.80;17.80;;;;;;5076418;28;20432;-63
2022/03/23 11:56:55;;;;;;;33.73;30.67;;;34.30;16.70;;;;;;5076369;28;20427;-63
2022/03/23 11:59:23;;;;;;;32.97;29.87;;;34.30;16.60;;;;;;5076683;28;20432;-64
2022/03/23 12:01:51;;;;;;;32.40;29.80;;;34.40;16.50;;;;;;5076227;28;20468;-64
2022/03/23 12:04:20;;;;;;;33.37;30.47;;;34.70;16.40;;;;;;5075792;28;21025;-64
2022/03/23 12:06:57;;;;;;;33.73;30.97;;;35.10;16.00;;;;;;5076214;28;20452;-64
2022/03/23 12:09:38;;;;;;;29.40;27.00;;;35.20;15.20;;;;;;5076333;28;20466;-64
2022/03/23 12:12:07;;;;;;;30.13;27.47;;;35.50;16.80;;;;;;5075969;28;20558;-64
2022/03/23 12:14:35;;;;;;;31.37;28.70;;;35.90;16.50;;;;;;5076279;28;20435;-64
2022/03/23 12:17:10;;;;;;;30.53;27.57;;;36.20;14.90;;;;;;5075692;28;20209;-64
2022/03/23 12:20:02;;;;;;;33.37;30.17;;;36.10;14.70;;;;;;5075605;28;20719;-63
2022/03/23 12:23:17;;;;;;;28.13;25.50;;;35.70;15.30;;;;;;5076022;28;20237;-64
2022/03/23 12:25:56;;;;;;;27.80;25.67;;;36.00;16.30;;;;;;5075669;28;20209;-64
2022/03/23 12:28:46;;;;;;;26.17;23.50;;;36.60;15.00;;;;;;5075783;28;20247;-64
2022/03/23 12:31:15;;;;;;;25.67;23.58;;;37.00;13.80;;;;;;5071594;28;20229;-64
2022/03/23 12:34:14;;;;;;;25.90;23.35;;;37.00;13.40;;;;;;5075645;28;20213;-64
2022/03/23 12:37:02;;;;;;;25.08;22.65;;;36.80;13.80;;;;;;5013759;28;20224;-64
2022/03/23 12:39:34;;;;;;;25.77;23.52;;;37.00;14.40;;;;;;5070622;28;20212;-64
2022/03/23 12:42:19;;;;;;;25.38;23.08;;;37.40;13.60;;;;;;5074938;28;20221;-64
2022/03/23 12:44:48;;;;;;;26.27;23.85;;;37.60;13.10;;;;;;5075699;28;20197;-64
2022/03/23 12:47:18;;;;;;;25.40;23.40;;;37.20;12.00;;;;;;5075344;28;20201;-63
2022/03/23 12:58:10;;;;;;;24.58;22.42;;;36.50;12.10;;;;;;5075238;28;20189;-63
2022/03/23 13:00:40;;;;;;;25.60;23.50;;;36.40;11.90;;;;;;5075330;28;20225;-62
2022/03/23 13:03:46;;;;;;;24.17;22.23;;;36.20;12.60;;;;;;5075513;28;20202;-63
2022/03/23 13:06:14;;;;;;;24.17;22.27;;;36.30;12.10;;;;;;5075663;28;20193;-62
2022/03/23 13:08:51;;;;;;;23.83;21.50;;;36.70;12.40;;;;;;5075452;28;20209;-63
2022/03/23 13:11:23;;;;;;;25.50;23.15;;;37.00;12.70;;;;;;5075726;28;20228;-63